Time;durP1;ratioP1;P1;durP2;ratioP2;P2;SDS_P1;SDS_P2;PMS_P1;PMS_P2;Temp;Humidity;BMP_temperature;BMP_pressure;BME280_temperature;BME280_humidity;BME280_pressure;Samples;Min_cycle;Max_cycle;Signal;HPM_P1;HPM_P2
2022/09/13 00:01:06;;;;;;;3.75;1.60;;;22.90;96.30;;;;;;5028252;28;20076;-73
2022/09/13 00:03:34;;;;;;;2.20;1.52;;;22.90;96.40;;;;;;5027267;28;20090;-76
2022/09/13 00:06:17;;;;;;;4.97;1.67;;;22.90;96.40;;;;;;5027085;28;20041;-73
2022/09/13 00:08:45;;;;;;;2.33;1.30;;;22.90;96.40;;;;;;5026869;28;20049;-73
2022/09/13 00:11:22;;;;;;;2.83;1.38;;;22.90;96.50;;;;;;5010506;28;20065;-73
2022/09/13 00:13:51;;;;;;;2.63;1.40;;;22.90;96.50;;;;;;5026755;28;20041;-73
2022/09/13 00:16:21;;;;;;;3.28;1.80;;;22.90;96.50;;;;;;5010455;28;20037;-73
2022/09/13 00:18:51;;;;;;;4.20;1.70;;;22.90;96.60;;;;;;5010613;28;20042;-74
2022/09/13 00:21:20;;;;;;;2.78;1.40;;;22.80;96.60;;;;;;5026527;28;20073;-73
2022/09/13 00:23:51;;;;;;;3.53;1.50;;;22.80;96.70;;;;;;5028173;28;20830;-72
2022/09/13 00:26:27;;;;;;;2.85;1.90;;;22.80;96.70;;;;;;5010711;28;20107;-74
2022/09/13 00:28:56;;;;;;;3.65;1.38;;;22.80;96.80;;;;;;4994068;28;20484;-73
2022/09/13 00:31:26;;;;;;;3.33;1.42;;;22.80;96.80;;;;;;4994329;28;20051;-72
2022/09/13 00:33:54;;;;;;;3.95;1.95;;;22.70;96.80;;;;;;5026386;28;20057;-74
2022/09/13 00:36:22;;;;;;;3.67;1.83;;;22.70;96.60;;;;;;5010249;28;20052;-73
2022/09/13 00:38:49;;;;;;;3.20;1.75;;;22.70;96.50;;;;;;5026737;28;20403;-73
2022/09/13 00:41:18;;;;;;;5.53;1.70;;;22.70;96.40;;;;;;5010668;28;20049;-72
2022/09/13 00:43:52;;;;;;;6.20;2.10;;;22.70;96.30;;;;;;5010530;28;20064;-73
2022/09/13 00:46:45;;;;;;;3.65;1.58;;;22.60;96.40;;;;;;5026728;28;20091;-72
2022/09/13 00:49:30;;;;;;;4.32;1.67;;;22.60;96.50;;;;;;5028082;28;20053;-73
2022/09/13 00:52:04;;;;;;;2.90;1.50;;;22.60;96.50;;;;;;5012006;28;20065;-72
2022/09/13 00:54:48;;;;;;;2.80;1.63;;;22.60;96.60;;;;;;5010987;28;20069;-73
2022/09/13 00:57:19;;;;;;;4.80;1.20;;;22.50;96.60;;;;;;5010840;28;20045;-74
2022/09/13 01:11:05;;;;;;;2.65;1.40;;;22.40;96.50;;;;;;5067335;28;20391;-72
2022/09/13 01:13:33;;;;;;;3.28;1.48;;;22.30;97.20;;;;;;5049862;28;20062;-71
2022/09/13 01:16:01;;;;;;;4.43;1.63;;;22.30;97.00;;;;;;5066469;28;20195;-72
2022/09/13 01:18:28;;;;;;;3.15;1.70;;;22.40;97.00;;;;;;5065623;28;20048;-72
2022/09/13 01:21:02;;;;;;;2.88;1.33;;;22.40;97.10;;;;;;5066908;28;20493;-71
2022/09/13 01:23:51;;;;;;;3.28;1.40;;;22.40;97.10;;;;;;5065783;28;20479;-73
2022/09/13 01:26:22;;;;;;;4.55;1.98;;;22.40;97.10;;;;;;5065629;28;20044;-72
2022/09/13 01:29:12;;;;;;;3.38;1.30;;;22.40;97.20;;;;;;5065549;28;20041;-72
2022/09/13 01:32:27;;;;;;;3.40;1.33;;;22.40;97.30;;;;;;5049166;28;20060;-73
2022/09/13 01:35:03;;;;;;;2.35;1.20;;;22.40;97.30;;;;;;5084415;28;20119;-72
2022/09/13 01:38:01;;;;;;;2.88;1.13;;;22.30;97.50;;;;;;5069168;28;20053;-71
2022/09/13 01:40:35;;;;;;;2.72;1.55;;;22.30;97.60;;;;;;5065189;28;20041;-72
2022/09/13 01:43:22;;;;;;;1.80;1.13;;;22.30;97.70;;;;;;5066480;28;20480;-72
2022/09/13 01:46:10;;;;;;;1.83;1.17;;;22.30;97.80;;;;;;5065335;28;20181;-71
2022/09/13 01:48:46;;;;;;;2.47;1.23;;;22.30;97.80;;;;;;5048738;28;20056;-73
2022/09/13 01:51:45;;;;;;;5.95;1.83;;;22.30;97.80;;;;;;5048823;28;20037;-72
2022/09/13 01:55:00;;;;;;;3.10;1.55;;;22.30;97.70;;;;;;5064967;28;20047;-71
2022/09/13 01:57:42;;;;;;;2.92;1.33;;;22.20;97.60;;;;;;5084249;28;20627;-71
2022/09/13 02:00:15;;;;;;;2.30;1.15;;;22.20;97.50;;;;;;5049969;28;20118;-72
2022/09/13 02:02:52;;;;;;;2.90;1.30;;;22.20;97.60;;;;;;5032125;28;20049;-71
2022/09/13 02:05:39;;;;;;;1.50;1.10;;;22.20;97.70;;;;;;5066316;28;20033;-71
2022/09/13 02:08:15;;;;;;;2.33;0.95;;;22.10;97.70;;;;;;5064252;28;20049;-72
2022/09/13 02:11:01;;;;;;;;;;;22.10;97.80;;;;;;5059825;28;20463;-71
2022/09/13 02:13:35;;;;;;;2.17;1.20;;;22.10;98.10;;;;;;5051793;28;20041;-71
2022/09/13 02:16:14;;;;;;;4.07;1.38;;;22.10;97.90;;;;;;5051636;28;20142;-72
2022/09/13 02:18:46;;;;;;;2.47;1.35;;;22.10;98.00;;;;;;5034692;28;20403;-72
2022/09/13 02:21:21;;;;;;;3.05;1.67;;;22.10;98.10;;;;;;5052773;28;20048;-71
2022/09/13 02:23:48;;;;;;;3.72;1.48;;;22.10;98.20;;;;;;5051552;28;20127;-72
2022/09/13 02:26:19;;;;;;;2.78;1.55;;;22.00;98.30;;;;;;5051181;28;20409;-71
2022/09/13 02:28:54;;;;;;;2.05;1.23;;;22.10;98.40;;;;;;5052550;28;20490;-71
2022/09/13 02:31:32;;;;;;;3.42;2.00;;;22.00;98.40;;;;;;5051195;28;20085;-72
2022/09/13 02:34:05;;;;;;;2.70;1.40;;;22.00;98.50;;;;;;5051297;28;20052;-72
2022/09/13 02:36:37;;;;;;;4.72;1.48;;;22.00;98.60;;;;;;5018009;28;20124;-72
2022/09/13 02:39:11;;;;;;;2.60;1.38;;;22.00;98.70;;;;;;5034621;28;20041;-71
2022/09/13 02:41:45;;;;;;;6.65;1.80;;;22.00;98.70;;;;;;5046458;28;20069;-71
2022/09/13 02:44:16;;;;;;;2.30;1.42;;;22.00;98.70;;;;;;5051197;28;20463;-71
2022/09/13 02:46:55;;;;;;;2.25;1.58;;;22.00;98.80;;;;;;5049851;28;20056;-72
2022/09/13 02:49:39;;;;;;;2.92;1.38;;;22.00;98.80;;;;;;5034710;28;20060;-71
2022/09/13 02:52:36;;;;;;;4.35;2.10;;;22.00;98.90;;;;;;5034239;28;20037;-71
2022/09/13 02:55:24;;;;;;;5.15;1.63;;;22.00;98.90;;;;;;5038045;28;20410;-71
2022/09/13 02:58:18;;;;;;;5.28;2.03;;;22.00;99.00;;;;;;5050924;28;20060;-71
2022/09/13 03:00:48;;;;;;;4.80;1.45;;;22.00;99.00;;;;;;5047094;28;20060;-72
2022/09/13 03:03:16;;;;;;;5.95;1.88;;;22.10;99.00;;;;;;5000383;28;20140;-72
2022/09/13 03:05:44;;;;;;;5.55;1.83;;;22.00;98.90;;;;;;4998101;28;20140;-72
2022/09/13 03:08:14;;;;;;;2.45;1.48;;;22.10;98.90;;;;;;5030714;28;20045;-72
2022/09/13 03:10:47;;;;;;;3.55;1.65;;;22.10;98.90;;;;;;5030571;28;20129;-71
2022/09/13 03:13:51;;;;;;;3.35;1.45;;;22.10;98.80;;;;;;5031034;28;20065;-72
2022/09/13 03:16:39;;;;;;;4.63;1.67;;;22.10;98.80;;;;;;5030504;28;20045;-72
2022/09/13 03:19:28;;;;;;;4.03;1.25;;;22.10;98.80;;;;;;5030358;28;20037;-71
2022/09/13 03:21:58;;;;;;;6.40;1.60;;;22.10;98.80;;;;;;5030845;28;20570;-71
2022/09/13 03:25:04;;;;;;;2.70;1.60;;;22.00;98.80;;;;;;5030242;28;20132;-73
2022/09/13 03:28:11;;;;;;;2.25;1.55;;;22.00;98.80;;;;;;5040525;28;20107;-71
2022/09/13 03:30:43;;;;;;;2.85;1.80;;;22.00;98.80;;;;;;5013672;28;20041;-72
2022/09/13 03:33:22;;;;;;;4.78;1.95;;;22.00;98.90;;;;;;5030343;28;20055;-71
2022/09/13 03:36:04;;;;;;;4.40;2.05;;;21.90;98.90;;;;;;5031375;28;20072;-71
2022/09/13 03:38:41;;;;;;;2.97;1.63;;;21.90;98.90;;;;;;5034002;28;20487;-71
2022/09/13 03:41:16;;;;;;;8.75;2.22;;;21.90;98.90;;;;;;4997615;28;20144;-72
2022/09/13 03:43:49;;;;;;;5.93;1.90;;;21.90;98.90;;;;;;4997811;28;20046;-71
2022/09/13 03:46:39;;;;;;;2.42;1.73;;;22.00;99.00;;;;;;5031078;28;20045;-71
2022/09/13 03:49:14;;;;;;;4.25;2.00;;;22.00;99.00;;;;;;5029880;28;20046;-72
2022/09/13 03:51:47;;;;;;;3.88;1.88;;;22.00;99.00;;;;;;5031126;28;20128;-71
2022/09/13 03:54:33;;;;;;;4.75;2.20;;;22.00;98.90;;;;;;5029561;28;20395;-71
2022/09/13 03:57:27;;;;;;;6.32;2.47;;;22.00;98.90;;;;;;5030421;28;20053;-72
2022/09/13 03:59:56;;;;;;;6.40;2.42;;;21.90;98.90;;;;;;5028385;28;20364;-71
2022/09/13 04:02:25;;;;;;;7.88;4.07;;;21.90;99.00;;;;;;5012541;28;20106;-71
2022/09/13 04:04:52;;;;;;;6.40;2.47;;;21.90;98.90;;;;;;5030129;28;20042;-71
2022/09/13 04:07:23;;;;;;;4.63;1.95;;;21.90;99.00;;;;;;5045504;28;20048;-72
2022/09/13 04:09:50;;;;;;;4.22;2.03;;;21.90;99.10;;;;;;4996288;28;20080;-71
2022/09/13 04:12:18;;;;;;;3.55;2.13;;;21.90;99.00;;;;;;5028824;28;20055;-72
2022/09/13 04:14:46;;;;;;;5.18;1.92;;;21.90;99.10;;;;;;5029386;28;20446;-75
2022/09/13 04:17:14;;;;;;;4.22;1.75;;;21.80;99.10;;;;;;5008441;28;20045;-71
2022/09/13 04:19:43;;;;;;;3.63;1.48;;;21.80;99.10;;;;;;5039789;28;20115;-71
2022/09/13 04:22:11;;;;;;;5.10;2.40;;;21.80;99.10;;;;;;5030711;28;20068;-71
2022/09/13 04:24:39;;;;;;;3.50;1.85;;;21.80;99.10;;;;;;5045868;28;20642;-71
2022/09/13 04:27:06;;;;;;;2.30;1.50;;;21.80;99.20;;;;;;5038932;28;20072;-73
2022/09/13 04:29:34;;;;;;;2.42;1.55;;;21.80;99.20;;;;;;5044667;28;20136;-72
2022/09/13 04:32:02;;;;;;;4.43;2.10;;;21.80;99.20;;;;;;5046776;28;20055;-71
2022/09/13 04:34:29;;;;;;;2.75;1.60;;;21.80;99.30;;;;;;5013869;28;20045;-71
2022/09/13 04:36:57;;;;;;;2.15;1.73;;;21.80;99.40;;;;;;5043423;28;20135;-73
2022/09/13 04:39:25;;;;;;;5.70;1.38;;;21.80;99.50;;;;;;5047586;28;20343;-72
2022/09/13 04:41:53;;;;;;;5.00;2.08;;;21.90;99.40;;;;;;5031359;28;20052;-72
2022/09/13 04:44:23;;;;;;;6.22;1.83;;;22.00;99.50;;;;;;5030788;28;20435;-72
2022/09/13 04:46:50;;;;;;;3.75;1.70;;;22.10;99.40;;;;;;5047590;28;20522;-71
2022/09/13 04:49:19;;;;;;;3.35;1.80;;;22.10;99.30;;;;;;5047495;28;20049;-71
2022/09/13 04:51:47;;;;;;;3.55;1.30;;;22.20;99.30;;;;;;5015082;28;20127;-72
2022/09/13 04:54:14;;;;;;;2.50;1.42;;;22.30;99.20;;;;;;5047939;28;20087;-72
2022/09/13 04:56:44;;;;;;;2.85;1.40;;;22.40;99.20;;;;;;5031153;28;20051;-72
2022/09/13 04:59:12;;;;;;;3.78;1.40;;;22.60;99.30;;;;;;5048059;28;20060;-72
2022/09/13 05:01:40;;;;;;;3.80;1.38;;;22.70;99.10;;;;;;5049079;28;20053;-73
2022/09/13 05:04:09;;;;;;;2.10;1.20;;;22.90;98.80;;;;;;5014962;28;20100;-73
2022/09/13 05:06:37;;;;;;;6.80;1.60;;;23.00;98.60;;;;;;5047312;28;20059;-73
2022/09/13 05:09:05;;;;;;;4.22;1.30;;;23.10;98.70;;;;;;5047224;28;20048;-72
2022/09/13 05:11:33;;;;;;;2.95;1.33;;;23.30;98.50;;;;;;5030470;28;20060;-73
2022/09/13 05:14:01;;;;;;;2.55;1.38;;;23.40;98.60;;;;;;5048747;28;20056;-72
2022/09/13 05:16:31;;;;;;;2.30;1.48;;;23.50;98.20;;;;;;5031254;28;20080;-72
2022/09/13 05:19:00;;;;;;;2.22;1.30;;;23.60;98.10;;;;;;5031116;28;20080;-72
2022/09/13 05:21:29;;;;;;;3.10;1.50;;;23.70;97.90;;;;;;5046778;28;20418;-73
2022/09/13 05:23:57;;;;;;;1.60;1.00;;;23.90;97.80;;;;;;5028180;28;20121;-72
2022/09/13 05:26:30;;;;;;;1.80;1.40;;;24.00;97.60;;;;;;5011276;28;20144;-72
2022/09/13 05:28:59;;;;;;;3.63;1.23;;;24.10;97.60;;;;;;4995036;28;20084;-74
2022/09/13 05:31:31;;;;;;;4.28;2.03;;;24.20;97.40;;;;;;5027268;28;20411;-72
2022/09/13 05:34:02;;;;;;;5.20;1.38;;;24.30;97.30;;;;;;5027431;28;20471;-72
2022/09/13 05:36:30;;;;;;;6.82;2.10;;;24.50;97.30;;;;;;5011201;28;20099;-73
2022/09/13 05:38:57;;;;;;;2.88;1.42;;;24.60;97.10;;;;;;5028832;28;20442;-72
2022/09/13 05:41:38;;;;;;;3.00;1.02;;;24.70;97.00;;;;;;5027253;28;20483;-73
2022/09/13 05:44:07;;;;;;;5.13;1.27;;;24.90;97.00;;;;;;5027152;28;20460;-74
2022/09/13 05:46:39;;;;;;;2.88;1.35;;;25.10;96.80;;;;;;5013378;28;20124;-73
2022/09/13 05:49:06;;;;;;;3.33;1.45;;;25.20;96.80;;;;;;5031278;28;20041;-73
2022/09/13 05:51:35;;;;;;;3.63;2.47;;;25.30;96.70;;;;;;5031446;28;20068;-72
2022/09/13 05:54:02;;;;;;;3.85;1.50;;;25.40;96.60;;;;;;5030776;28;20045;-72
2022/09/13 05:56:31;;;;;;;3.42;1.52;;;25.50;96.40;;;;;;5014336;28;20127;-72
2022/09/13 05:58:58;;;;;;;5.50;1.60;;;25.70;96.30;;;;;;5032194;28;20392;-72
2022/09/13 06:01:27;;;;;;;5.95;1.50;;;25.80;96.20;;;;;;5032037;28;20046;-72
2022/09/13 06:03:57;;;;;;;2.47;1.65;;;25.90;96.10;;;;;;5032194;28;20041;-72
2022/09/13 06:06:25;;;;;;;2.50;1.30;;;26.00;96.00;;;;;;5031878;28;20127;-72
2022/09/13 06:08:56;;;;;;;2.67;1.40;;;26.20;95.90;;;;;;5034611;28;20032;-72
2022/09/13 06:11:25;;;;;;;10.48;2.40;;;26.20;95.80;;;;;;5050646;28;20049;-72
2022/09/13 06:13:53;;;;;;;6.30;1.77;;;26.40;95.70;;;;;;5051905;28;20431;-73
2022/09/13 06:16:21;;;;;;;9.35;1.80;;;26.50;95.70;;;;;;5051613;28;20080;-77
2022/09/13 06:18:49;;;;;;;6.45;2.15;;;26.70;95.60;;;;;;5050361;28;20128;-73
2022/09/13 06:21:19;;;;;;;4.65;1.60;;;26.80;95.50;;;;;;5050483;28;20170;-73
2022/09/13 06:23:50;;;;;;;5.00;2.42;;;26.90;95.30;;;;;;5033980;28;20131;-73
2022/09/13 06:26:21;;;;;;;7.35;1.80;;;27.00;95.20;;;;;;5051904;28;20382;-72
2022/09/13 06:28:50;;;;;;;4.43;1.63;;;27.20;95.10;;;;;;5034271;28;20049;-73
2022/09/13 06:31:19;;;;;;;4.07;1.70;;;27.30;95.00;;;;;;5051414;28;20052;-72
2022/09/13 06:33:47;;;;;;;5.63;1.73;;;27.40;94.90;;;;;;5050496;28;20045;-73
2022/09/13 06:36:18;;;;;;;4.38;1.65;;;27.60;94.80;;;;;;5050485;28;20045;-72
2022/09/13 06:38:47;;;;;;;3.35;1.77;;;27.60;94.60;;;;;;5050277;28;20041;-72
2022/09/13 06:41:17;;;;;;;4.38;1.80;;;27.80;94.50;;;;;;5051186;28;20036;-72
2022/09/13 06:43:46;;;;;;;5.32;2.17;;;27.80;94.50;;;;;;5051717;28;20083;-71
2022/09/13 06:46:16;;;;;;;6.85;2.20;;;28.00;94.40;;;;;;5050111;28;20174;-72
2022/09/13 06:48:47;;;;;;;2.72;1.75;;;28.10;94.30;;;;;;5051295;28;20080;-72
2022/09/13 06:51:17;;;;;;;7.80;2.53;;;28.20;94.10;;;;;;5049841;28;20155;-72
2022/09/13 06:53:47;;;;;;;9.05;2.30;;;28.30;93.90;;;;;;5050965;28;20103;-72
2022/09/13 06:56:20;;;;;;;5.25;1.80;;;28.40;93.80;;;;;;5049514;28;20406;-74
2022/09/13 06:58:51;;;;;;;4.57;2.00;;;28.50;93.70;;;;;;5047595;28;20081;-72
2022/09/13 07:01:21;;;;;;;4.30;1.80;;;28.60;93.30;;;;;;5049655;28;20483;-72
2022/09/13 07:03:53;;;;;;;6.28;1.80;;;28.80;93.10;;;;;;5033194;28;20645;-72
2022/09/13 07:06:27;;;;;;;8.75;2.10;;;28.90;93.00;;;;;;5033160;28;20364;-79
2022/09/13 07:08:56;;;;;;;6.47;2.03;;;29.00;92.80;;;;;;5033532;28;20057;-74
2022/09/13 07:11:28;;;;;;;4.03;1.60;;;29.10;92.10;;;;;;5033112;28;20053;-74
2022/09/13 07:13:57;;;;;;;3.42;2.05;;;29.00;91.90;;;;;;5050808;28;20098;-72
2022/09/13 07:16:28;;;;;;;3.35;2.05;;;28.70;91.90;;;;;;5050558;28;20041;-72
2022/09/13 07:18:58;;;;;;;4.90;1.80;;;28.70;92.20;;;;;;5049310;28;20041;-72
2022/09/13 07:21:26;;;;;;;5.97;2.15;;;28.60;92.00;;;;;;5048982;28;20198;-72
2022/09/13 07:23:55;;;;;;;4.03;1.70;;;28.70;92.00;;;;;;5016482;28;20037;-72
2022/09/13 07:26:26;;;;;;;2.97;1.48;;;28.90;91.30;;;;;;5050520;28;20064;-72
2022/09/13 07:28:58;;;;;;;6.50;1.92;;;28.90;90.50;;;;;;5049267;28;20041;-72
2022/09/13 07:31:28;;;;;;;4.47;1.70;;;28.80;90.40;;;;;;5049116;28;20063;-72
2022/09/13 07:33:57;;;;;;;3.03;1.77;;;28.80;90.80;;;;;;5049289;28;20112;-72
2022/09/13 07:36:26;;;;;;;2.83;1.80;;;28.50;90.90;;;;;;5048908;28;20052;-72
2022/09/13 07:38:54;;;;;;;2.35;1.50;;;28.40;91.00;;;;;;5050511;28;20048;-73
2022/09/13 07:41:23;;;;;;;4.05;1.90;;;28.40;90.40;;;;;;5031960;28;20493;-73
2022/09/13 07:43:51;;;;;;;3.90;1.60;;;28.50;90.10;;;;;;5049127;28;20090;-72
2022/09/13 07:46:23;;;;;;;3.38;1.65;;;28.70;89.00;;;;;;5049100;28;20128;-73
2022/09/13 07:48:55;;;;;;;2.95;1.40;;;28.70;87.90;;;;;;5041171;28;20096;-72
2022/09/13 07:51:28;;;;;;;2.50;1.63;;;29.00;87.60;;;;;;5029237;28;20072;-72
2022/09/13 07:53:59;;;;;;;1.80;1.33;;;29.20;85.70;;;;;;5033948;28;20378;-72
2022/09/13 07:56:29;;;;;;;3.67;1.73;;;29.40;85.70;;;;;;5028756;28;20068;-71
2022/09/13 07:58:59;;;;;;;2.33;1.60;;;29.40;85.20;;;;;;5030023;28;20046;-72
2022/09/13 08:01:38;;;;;;;2.63;1.50;;;29.40;85.80;;;;;;5028954;28;20571;-74
2022/09/13 08:04:08;;;;;;;2.58;1.50;;;29.20;85.50;;;;;;5028626;28;20041;-73
2022/09/13 08:06:38;;;;;;;3.92;1.42;;;29.10;85.20;;;;;;5011943;28;20057;-74
2022/09/13 08:09:08;;;;;;;3.22;1.55;;;29.10;85.50;;;;;;5029279;28;20053;-72
2022/09/13 08:11:47;;;;;;;2.60;1.40;;;29.10;84.40;;;;;;5028646;28;20529;-72
2022/09/13 08:14:16;;;;;;;2.38;1.70;;;29.10;83.80;;;;;;5012419;28;20730;-73
2022/09/13 08:16:44;;;;;;;2.78;1.20;;;29.10;84.00;;;;;;5012154;28;20045;-71
2022/09/13 08:19:14;;;;;;;3.17;1.40;;;29.20;83.30;;;;;;5012175;28;20061;-73
2022/09/13 08:21:43;;;;;;;4.30;1.77;;;29.20;84.30;;;;;;5012153;28;20144;-72
2022/09/13 08:24:16;;;;;;;2.40;1.50;;;29.20;85.10;;;;;;5028177;28;20135;-72
2022/09/13 08:26:45;;;;;;;2.60;1.42;;;29.20;85.00;;;;;;5011902;28;20410;-71
2022/09/13 08:29:13;;;;;;;3.30;1.92;;;29.30;84.80;;;;;;5028421;28;20424;-72
2022/09/13 08:31:41;;;;;;;3.15;1.58;;;29.50;85.00;;;;;;5029501;28;20080;-72
2022/09/13 08:34:16;;;;;;;3.50;1.70;;;29.50;82.80;;;;;;5028035;28;20462;-72
2022/09/13 08:36:45;;;;;;;3.13;1.58;;;29.60;83.00;;;;;;5029479;28;20045;-72
2022/09/13 08:39:12;;;;;;;2.03;1.30;;;29.60;81.40;;;;;;5028026;28;20391;-72
2022/09/13 08:41:46;;;;;;;6.72;2.80;;;29.80;81.50;;;;;;5028233;28;20534;-73
2022/09/13 08:44:44;;;;;;;2.83;1.45;;;29.90;81.10;;;;;;5030723;28;20487;-72
2022/09/13 08:47:44;;;;;;;3.08;1.77;;;29.90;81.60;;;;;;5011745;28;20057;-71
2022/09/13 08:50:33;;;;;;;3.55;1.40;;;29.90;82.10;;;;;;5033833;28;20166;-72
2022/09/13 08:53:25;;;;;;;2.92;2.40;;;29.90;82.30;;;;;;5049184;28;20064;-72
2022/09/13 08:56:11;;;;;;;3.15;1.90;;;29.60;83.40;;;;;;5048146;28;20123;-71
2022/09/13 08:59:07;;;;;;;4.18;2.65;;;29.60;83.20;;;;;;5047354;28;20067;-72
2022/09/13 09:01:50;;;;;;;2.10;1.40;;;29.70;82.40;;;;;;5049685;28;20136;-71
2022/09/13 09:04:31;;;;;;;4.25;1.73;;;29.80;82.30;;;;;;5049162;28;20098;-74
2022/09/13 09:07:07;;;;;;;3.22;1.58;;;29.80;81.10;;;;;;5048097;28;20045;-72
2022/09/13 09:09:51;;;;;;;2.15;1.30;;;29.90;80.50;;;;;;5047686;28;20060;-72
2022/09/13 09:12:40;;;;;;;4.00;1.60;;;29.90;81.00;;;;;;5047792;28;20340;-72
2022/09/13 09:15:46;;;;;;;2.45;1.92;;;29.80;81.30;;;;;;5047642;28;20037;-73
2022/09/13 09:18:34;;;;;;;4.00;1.77;;;29.60;79.50;;;;;;5047570;28;20061;-72
2022/09/13 09:21:05;;;;;;;3.13;1.55;;;29.40;80.70;;;;;;5016470;28;20053;-73
2022/09/13 09:23:38;;;;;;;2.65;1.73;;;29.40;82.00;;;;;;5035129;28;20086;-72
2022/09/13 09:26:30;;;;;;;3.70;1.60;;;29.40;81.70;;;;;;5053263;28;20560;-72
2022/09/13 09:29:25;;;;;;;2.60;1.42;;;29.30;81.60;;;;;;5051343;28;20378;-74
2022/09/13 09:32:02;;;;;;;3.00;2.08;;;29.30;81.90;;;;;;5051182;28;20041;-72
2022/09/13 09:34:41;;;;;;;2.00;1.48;;;29.30;82.80;;;;;;5051423;28;20041;-72
2022/09/13 09:37:19;;;;;;;2.45;1.65;;;29.30;82.50;;;;;;5035060;28;20063;-72
2022/09/13 09:39:52;;;;;;;4.28;2.40;;;29.40;82.60;;;;;;5050746;28;20041;-73
2022/09/13 09:42:28;;;;;;;2.85;1.70;;;29.30;79.70;;;;;;5032624;28;20045;-72
2022/09/13 09:45:04;;;;;;;2.80;1.80;;;29.10;80.50;;;;;;5031689;28;20111;-72
2022/09/13 09:48:01;;;;;;;3.88;1.83;;;29.10;80.80;;;;;;5031286;28;20325;-72
2022/09/13 09:50:46;;;;;;;3.63;2.33;;;29.00;81.70;;;;;;5032061;28;20231;-72
2022/09/13 09:53:25;;;;;;;4.25;2.22;;;29.20;81.90;;;;;;5031233;28;20515;-72
2022/09/13 09:56:19;;;;;;;2.38;1.70;;;29.30;82.90;;;;;;5015054;28;20141;-73
2022/09/13 09:58:46;;;;;;;6.28;2.08;;;29.40;81.90;;;;;;5032195;28;20037;-72
2022/09/13 10:01:34;;;;;;;4.63;1.70;;;29.40;81.10;;;;;;5014437;28;20076;-72
2022/09/13 10:04:11;;;;;;;4.85;2.08;;;29.50;80.90;;;;;;5031100;28;20133;-73
2022/09/13 10:06:40;;;;;;;2.08;1.40;;;29.50;80.70;;;;;;5032073;28;20371;-71
2022/09/13 10:09:17;;;;;;;2.30;1.50;;;29.40;81.50;;;;;;5030900;28;20444;-72
2022/09/13 10:11:48;;;;;;;3.53;1.85;;;29.50;80.40;;;;;;5030707;28;20033;-72
2022/09/13 10:14:28;;;;;;;3.60;1.63;;;29.50;81.00;;;;;;5032399;28;20136;-73
2022/09/13 10:17:15;;;;;;;3.53;1.52;;;29.70;81.20;;;;;;5014555;28;20084;-73
2022/09/13 10:19:53;;;;;;;2.35;1.42;;;29.80;80.50;;;;;;5030868;28;20053;-74
2022/09/13 10:22:21;;;;;;;3.47;1.60;;;29.80;80.20;;;;;;5014260;28;20365;-78
2022/09/13 10:24:50;;;;;;;2.88;1.60;;;29.90;80.30;;;;;;5031871;28;20119;-74
2022/09/13 10:27:23;;;;;;;8.15;1.55;;;29.90;79.90;;;;;;5030803;28;20080;-74
2022/09/13 10:29:58;;;;;;;13.20;2.33;;;30.00;79.90;;;;;;5031799;28;20048;-73
2022/09/13 10:32:27;;;;;;;2.45;1.73;;;29.90;79.40;;;;;;5030697;28;20490;-75
2022/09/13 10:35:01;;;;;;;6.15;1.75;;;29.80;79.50;;;;;;5036650;28;20394;-74
2022/09/13 10:37:32;;;;;;;1.83;1.17;;;29.60;79.30;;;;;;5051676;28;20103;-73
2022/09/13 10:40:08;;;;;;;2.85;1.60;;;29.70;79.00;;;;;;5048169;28;20418;-74
2022/09/13 10:42:36;;;;;;;2.95;1.60;;;29.70;79.30;;;;;;5051099;28;20087;-73
2022/09/13 10:45:18;;;;;;;2.92;1.55;;;29.70;79.30;;;;;;5033573;28;20242;-74
2022/09/13 10:47:48;;;;;;;2.92;1.40;;;29.70;78.80;;;;;;5033723;28;20059;-74
2022/09/13 10:50:19;;;;;;;3.47;1.45;;;29.70;79.70;;;;;;5051208;28;20099;-73
2022/09/13 10:52:49;;;;;;;2.85;1.55;;;29.70;79.40;;;;;;5051195;28;20517;-74
2022/09/13 10:55:17;;;;;;;2.15;1.30;;;29.60;79.10;;;;;;5017154;28;20144;-73
2022/09/13 10:57:53;;;;;;;5.68;1.90;;;29.50;78.90;;;;;;5051241;28;20087;-71
2022/09/13 11:00:46;;;;;;;8.55;1.77;;;29.60;80.00;;;;;;5049375;28;20077;-73
2022/09/13 11:03:26;;;;;;;2.92;1.55;;;29.60;80.10;;;;;;5033238;28;20057;-74
2022/09/13 11:06:20;;;;;;;3.60;1.08;;;29.60;80.80;;;;;;5033253;28;20099;-74
2022/09/13 11:09:06;;;;;;;2.95;1.30;;;29.50;78.60;;;;;;5051268;28;20037;-73
2022/09/13 11:11:44;;;;;;;2.53;1.33;;;29.40;79.30;;;;;;5050932;28;20513;-73
2022/09/13 11:14:36;;;;;;;3.38;1.48;;;29.40;79.80;;;;;;5049761;28;20114;-73
2022/09/13 11:17:18;;;;;;;2.30;1.63;;;29.30;79.70;;;;;;5050916;28;20048;-73
2022/09/13 11:20:02;;;;;;;4.32;1.52;;;29.40;79.90;;;;;;5049695;28;20144;-74
2022/09/13 11:22:45;;;;;;;3.75;1.70;;;29.40;79.60;;;;;;5050499;28;20139;-73
2022/09/13 11:25:29;;;;;;;3.20;1.35;;;29.20;79.20;;;;;;5046794;28;20034;-74
2022/09/13 11:28:24;;;;;;;2.35;1.55;;;29.20;79.20;;;;;;5032834;28;20059;-75
2022/09/13 11:31:14;;;;;;;1.92;1.58;;;29.20;78.00;;;;;;5049083;28;20051;-74
2022/09/13 11:33:51;;;;;;;1.65;1.15;;;29.20;78.70;;;;;;5050573;28;20568;-74
2022/09/13 11:36:33;;;;;;;2.65;1.35;;;29.30;79.60;;;;;;5048979;28;20060;-76
2022/09/13 11:39:27;;;;;;;3.88;2.13;;;29.30;78.40;;;;;;5050064;28;20467;-75
2022/09/13 11:42:07;;;;;;;2.70;1.60;;;29.40;78.20;;;;;;5050595;28;20051;-73
2022/09/13 11:45:01;;;;;;;7.80;1.77;;;29.30;78.00;;;;;;5048024;28;20041;-74
2022/09/13 11:47:50;;;;;;;1.80;1.20;;;29.30;78.80;;;;;;5043521;28;20048;-74
2022/09/13 11:50:27;;;;;;;11.45;3.65;;;29.30;78.00;;;;;;5043997;28;20543;-75
2022/09/13 11:53:22;;;;;;;14.18;2.17;;;29.30;77.80;;;;;;5039581;28;20091;-73
2022/09/13 11:55:55;;;;;;;2.80;1.38;;;29.20;76.20;;;;;;5038959;28;20372;-78
2022/09/13 11:58:41;;;;;;;1.77;1.30;;;28.90;75.80;;;;;;5001416;28;20045;-74
2022/09/13 12:01:15;;;;;;;1.83;1.08;;;28.80;77.20;;;;;;5030126;28;20121;-74
2022/09/13 12:03:54;;;;;;;2.65;1.63;;;28.80;77.40;;;;;;5044888;28;20491;-73
2022/09/13 12:06:30;;;;;;;3.30;1.30;;;28.90;78.10;;;;;;5038346;28;20045;-74
2022/09/13 12:09:13;;;;;;;3.25;1.55;;;28.90;77.10;;;;;;5053101;28;20041;-73
2022/09/13 12:12:12;;;;;;;4.45;1.25;;;28.90;76.30;;;;;;5032325;28;20474;-73
2022/09/13 12:14:52;;;;;;;4.05;1.70;;;28.80;77.00;;;;;;5033031;28;20041;-73
2022/09/13 12:17:39;;;;;;;3.25;1.70;;;28.70;78.40;;;;;;5033309;28;20357;-73
2022/09/13 12:20:28;;;;;;;2.35;1.45;;;28.70;77.00;;;;;;5033034;28;20095;-74
2022/09/13 12:23:00;;;;;;;3.45;1.25;;;28.70;77.30;;;;;;5043572;28;20120;-75
2022/09/13 12:25:47;;;;;;;3.60;1.50;;;28.80;75.70;;;;;;5028952;28;20103;-76
2022/09/13 12:28:18;;;;;;;1.95;1.17;;;28.80;75.20;;;;;;5033300;28;20041;-75
2022/09/13 12:30:59;;;;;;;2.40;1.20;;;28.70;76.00;;;;;;5033766;28;20091;-74
2022/09/13 12:33:27;;;;;;;1.98;1.27;;;28.70;76.20;;;;;;5037286;28;20122;-74
2022/09/13 12:36:10;;;;;;;1.60;1.00;;;28.60;74.20;;;;;;5032141;28;20380;-73
2022/09/13 12:38:55;;;;;;;1.98;1.20;;;28.60;75.10;;;;;;5018760;28;20136;-73
2022/09/13 12:41:49;;;;;;;2.38;1.45;;;28.60;75.10;;;;;;5030581;28;20047;-73
2022/09/13 12:44:49;;;;;;;2.15;1.27;;;28.60;75.10;;;;;;5042162;28;20041;-73
2022/09/13 12:47:55;;;;;;;3.53;1.52;;;28.50;74.70;;;;;;5033796;28;20050;-75
2022/09/13 12:50:51;;;;;;;2.55;1.15;;;28.50;76.30;;;;;;5039401;28;20048;-73
2022/09/13 12:53:55;;;;;;;2.17;1.00;;;28.40;74.10;;;;;;5034963;28;20129;-73
2022/09/13 12:56:44;;;;;;;1.42;1.00;;;28.40;73.50;;;;;;5044543;28;20068;-74
2022/09/13 12:59:49;;;;;;;2.03;1.10;;;28.50;72.90;;;;;;5045384;28;20045;-74
2022/09/13 13:02:30;;;;;;;1.35;1.00;;;28.20;70.90;;;;;;5043558;28;20090;-73
2022/09/13 13:05:21;;;;;;;1.83;1.67;;;28.20;70.70;;;;;;5042676;28;20139;-74
2022/09/13 13:07:55;;;;;;;1.30;1.00;;;28.10;72.30;;;;;;5034169;28;20108;-74
2022/09/13 13:10:37;;;;;;;4.95;1.45;;;28.10;72.20;;;;;;5029230;28;20049;-74
2022/09/13 13:13:24;;;;;;;2.53;1.13;;;28.20;71.30;;;;;;5018430;28;20126;-77
2022/09/13 13:15:53;;;;;;;1.83;1.00;;;28.20;72.50;;;;;;5027939;28;20530;-76
2022/09/13 13:18:41;;;;;;;1.58;1.10;;;28.10;71.80;;;;;;5040093;28;20052;-80
2022/09/13 13:21:34;;;;;;;1.70;1.27;;;28.10;73.00;;;;;;5027901;28;20057;-76
2022/09/13 13:24:28;;;;;;;4.25;1.30;;;28.20;70.30;;;;;;5046508;28;20048;-78
2022/09/13 13:26:57;;;;;;;2.88;0.95;;;28.20;71.60;;;;;;5044030;28;20117;-76
2022/09/13 13:29:25;;;;;;;2.97;1.15;;;28.10;70.80;;;;;;5044075;28;20053;-76
2022/09/13 13:32:02;;;;;;;2.80;1.20;;;28.20;71.80;;;;;;5032867;28;20132;-76
2022/09/13 13:34:37;;;;;;;4.00;1.13;;;28.10;73.20;;;;;;5037687;28;20140;-76
2022/09/13 13:37:29;;;;;;;1.38;0.90;;;28.10;71.40;;;;;;5047512;28;20143;-76
2022/09/13 13:40:21;;;;;;;3.53;1.35;;;28.10;72.20;;;;;;5039129;28;20239;-76
2022/09/13 13:42:49;;;;;;;1.80;0.90;;;28.00;71.60;;;;;;5029128;28;20049;-76
2022/09/13 13:45:23;;;;;;;1.67;1.20;;;28.10;71.40;;;;;;5028001;28;20038;-78
2022/09/13 13:48:08;;;;;;;2.28;1.10;;;28.00;70.90;;;;;;5029229;28;20477;-78